sensor_id;sensor_type;location;lat;lon;timestamp;P1;durP1;ratioP1;P2;durP2;ratioP2
6197;SDS011;3132;42.622;23.328;2023-02-11T00:00:22;15.87;;;13.90;;
6197;SDS011;3132;42.622;23.328;2023-02-11T00:02:47;16.27;;;13.93;;
6197;SDS011;3132;42.622;23.328;2023-02-11T00:05:13;16.10;;;14.50;;
6197;SDS011;3132;42.622;23.328;2023-02-11T00:07:38;15.57;;;13.90;;
6197;SDS011;3132;42.622;23.328;2023-02-11T00:10:04;15.20;;;13.80;;
6197;SDS011;3132;42.622;23.328;2023-02-11T00:12:32;14.83;;;13.30;;
6197;SDS011;3132;42.622;23.328;2023-02-11T00:14:58;16.43;;;15.00;;
6197;SDS011;3132;42.622;23.328;2023-02-11T00:17:23;14.73;;;13.30;;
6197;SDS011;3132;42.622;23.328;2023-02-11T00:19:49;14.40;;;13.10;;
6197;SDS011;3132;42.622;23.328;2023-02-11T00:22:15;12.87;;;11.67;;
6197;SDS011;3132;42.622;23.328;2023-02-11T00:24:41;15.20;;;13.90;;
6197;SDS011;3132;42.622;23.328;2023-02-11T00:27:06;14.20;;;13.20;;
6197;SDS011;3132;42.622;23.328;2023-02-11T00:29:32;14.57;;;13.33;;
6197;SDS011;3132;42.622;23.328;2023-02-11T00:31:57;14.87;;;13.63;;
6197;SDS011;3132;42.622;23.328;2023-02-11T00:34:23;14.93;;;13.83;;
6197;SDS011;3132;42.622;23.328;2023-02-11T00:36:48;14.87;;;13.00;;
6197;SDS011;3132;42.622;23.328;2023-02-11T00:39:14;15.00;;;13.67;;
6197;SDS011;3132;42.622;23.328;2023-02-11T00:41:39;14.40;;;13.10;;
6197;SDS011;3132;42.622;23.328;2023-02-11T00:44:05;14.23;;;13.03;;
6197;SDS011;3132;42.622;23.328;2023-02-11T00:46:30;14.27;;;13.07;;
6197;SDS011;3132;42.622;23.328;2023-02-11T00:48:56;14.83;;;13.63;;
6197;SDS011;3132;42.622;23.328;2023-02-11T00:51:24;15.07;;;13.70;;
6197;SDS011;3132;42.622;23.328;2023-02-11T00:53:51;14.83;;;13.63;;
6197;SDS011;3132;42.622;23.328;2023-02-11T00:56:17;14.33;;;13.03;;
6197;SDS011;3132;42.622;23.328;2023-02-11T00:58:42;13.37;;;12.30;;
6197;SDS011;3132;42.622;23.328;2023-02-11T01:01:08;14.20;;;12.97;;
6197;SDS011;3132;42.622;23.328;2023-02-11T01:03:33;13.57;;;12.17;;
6197;SDS011;3132;42.622;23.328;2023-02-11T01:05:59;12.83;;;11.77;;
6197;SDS011;3132;42.622;23.328;2023-02-11T01:08:24;13.53;;;12.33;;
6197;SDS011;3132;42.622;23.328;2023-02-11T01:10:57;15.13;;;13.90;;
6197;SDS011;3132;42.622;23.328;2023-02-11T01:13:24;14.13;;;12.87;;
6197;SDS011;3132;42.622;23.328;2023-02-11T01:15:51;13.93;;;12.67;;
6197;SDS011;3132;42.622;23.328;2023-02-11T01:18:17;13.67;;;12.67;;
6197;SDS011;3132;42.622;23.328;2023-02-11T01:20:42;13.57;;;12.43;;
6197;SDS011;3132;42.622;23.328;2023-02-11T01:23:08;13.57;;;12.20;;
6197;SDS011;3132;42.622;23.328;2023-02-11T01:25:33;12.63;;;11.80;;
6197;SDS011;3132;42.622;23.328;2023-02-11T01:27:59;14.53;;;13.23;;
6197;SDS011;3132;42.622;23.328;2023-02-11T01:30:24;11.57;;;10.57;;
6197;SDS011;3132;42.622;23.328;2023-02-11T01:32:49;14.30;;;13.07;;
6197;SDS011;3132;42.622;23.328;2023-02-11T01:35:15;14.23;;;12.97;;
6197;SDS011;3132;42.622;23.328;2023-02-11T01:37:40;14.60;;;13.30;;
6197;SDS011;3132;42.622;23.328;2023-02-11T01:40:09;13.57;;;12.43;;
6197;SDS011;3132;42.622;23.328;2023-02-11T01:42:40;13.80;;;12.57;;
6197;SDS011;3132;42.622;23.328;2023-02-11T01:48:21;12.50;;;11.63;;
6197;SDS011;3132;42.622;23.328;2023-02-11T01:50:56;13.57;;;12.17;;
6197;SDS011;3132;42.622;23.328;2023-02-11T01:53:27;12.63;;;11.90;;
6197;SDS011;3132;42.622;23.328;2023-02-11T01:56:13;12.77;;;12.07;;
6197;SDS011;3132;42.622;23.328;2023-02-11T01:59:01;13.57;;;12.43;;
6197;SDS011;3132;42.622;23.328;2023-02-11T02:01:30;13.70;;;12.63;;
6197;SDS011;3132;42.622;23.328;2023-02-11T02:03:58;14.57;;;13.57;;
6197;SDS011;3132;42.622;23.328;2023-02-11T02:06:32;12.23;;;11.20;;
6197;SDS011;3132;42.622;23.328;2023-02-11T02:09:08;13.77;;;12.37;;
6197;SDS011;3132;42.622;23.328;2023-02-11T02:11:41;12.40;;;11.50;;
6197;SDS011;3132;42.622;23.328;2023-02-11T02:14:06;15.17;;;13.93;;
6197;SDS011;3132;42.622;23.328;2023-02-11T02:16:35;13.00;;;12.10;;
6197;SDS011;3132;42.622;23.328;2023-02-11T02:24:37;16.10;;;14.60;;
6197;SDS011;3132;42.622;23.328;2023-02-11T02:36:08;14.43;;;13.33;;
6197;SDS011;3132;42.622;23.328;2023-02-11T02:38:56;14.67;;;13.33;;
6197;SDS011;3132;42.622;23.328;2023-02-11T02:41:28;13.93;;;12.83;;
6197;SDS011;3132;42.622;23.328;2023-02-11T02:43:56;14.00;;;12.83;;
6197;SDS011;3132;42.622;23.328;2023-02-11T02:46:25;14.07;;;12.63;;
6197;SDS011;3132;42.622;23.328;2023-02-11T02:48:58;14.40;;;13.20;;
6197;SDS011;3132;42.622;23.328;2023-02-11T02:51:26;16.07;;;13.80;;
6197;SDS011;3132;42.622;23.328;2023-02-11T02:56:51;12.70;;;11.90;;
6197;SDS011;3132;42.622;23.328;2023-02-11T02:59:32;13.70;;;12.53;;
6197;SDS011;3132;42.622;23.328;2023-02-11T03:03:07;13.57;;;12.30;;
6197;SDS011;3132;42.622;23.328;2023-02-11T03:07:42;13.23;;;11.93;;
6197;SDS011;3132;42.622;23.328;2023-02-11T03:10:18;13.67;;;12.43;;
6197;SDS011;3132;42.622;23.328;2023-02-11T03:12:51;14.57;;;13.17;;
6197;SDS011;3132;42.622;23.328;2023-02-11T03:15:19;13.80;;;12.83;;
6197;SDS011;3132;42.622;23.328;2023-02-11T03:17:46;15.23;;;13.13;;
6197;SDS011;3132;42.622;23.328;2023-02-11T03:20:16;14.47;;;13.37;;
6197;SDS011;3132;42.622;23.328;2023-02-11T03:22:49;13.77;;;12.60;;
6197;SDS011;3132;42.622;23.328;2023-02-11T03:25:19;13.97;;;12.87;;
6197;SDS011;3132;42.622;23.328;2023-02-11T03:30:33;12.27;;;11.37;;
6197;SDS011;3132;42.622;23.328;2023-02-11T03:33:16;13.70;;;12.50;;
6197;SDS011;3132;42.622;23.328;2023-02-11T03:35:52;14.57;;;13.27;;
6197;SDS011;3132;42.622;23.328;2023-02-11T03:38:26;15.50;;;14.10;;
6197;SDS011;3132;42.622;23.328;2023-02-11T03:40:55;16.10;;;14.60;;
6197;SDS011;3132;42.622;23.328;2023-02-11T03:43:42;15.03;;;13.80;;
6197;SDS011;3132;42.622;23.328;2023-02-11T03:46:11;16.10;;;14.73;;
6197;SDS011;3132;42.622;23.328;2023-02-11T03:48:41;15.10;;;13.70;;
6197;SDS011;3132;42.622;23.328;2023-02-11T03:51:11;14.17;;;13.03;;
6197;SDS011;3132;42.622;23.328;2023-02-11T03:53:38;14.73;;;13.23;;
6197;SDS011;3132;42.622;23.328;2023-02-11T03:56:07;15.77;;;14.10;;
6197;SDS011;3132;42.622;23.328;2023-02-11T03:58:37;14.67;;;13.27;;
6197;SDS011;3132;42.622;23.328;2023-02-11T04:01:03;14.70;;;13.53;;
6197;SDS011;3132;42.622;23.328;2023-02-11T04:03:29;13.97;;;12.53;;
6197;SDS011;3132;42.622;23.328;2023-02-11T04:05:56;14.00;;;12.60;;
6197;SDS011;3132;42.622;23.328;2023-02-11T04:08:22;14.73;;;12.90;;
6197;SDS011;3132;42.622;23.328;2023-02-11T04:10:47;14.13;;;12.87;;
6197;SDS011;3132;42.622;23.328;2023-02-11T04:13:13;15.30;;;14.10;;
6197;SDS011;3132;42.622;23.328;2023-02-11T04:15:39;14.13;;;12.83;;
6197;SDS011;3132;42.622;23.328;2023-02-11T04:18:04;15.47;;;12.57;;
6197;SDS011;3132;42.622;23.328;2023-02-11T04:20:30;14.87;;;13.43;;
6197;SDS011;3132;42.622;23.328;2023-02-11T04:22:55;13.67;;;12.77;;
6197;SDS011;3132;42.622;23.328;2023-02-11T04:25:20;16.30;;;14.93;;
6197;SDS011;3132;42.622;23.328;2023-02-11T04:27:46;14.60;;;13.27;;
6197;SDS011;3132;42.622;23.328;2023-02-11T04:30:11;19.57;;;13.73;;
6197;SDS011;3132;42.622;23.328;2023-02-11T04:32:37;13.43;;;11.97;;
6197;SDS011;3132;42.622;23.328;2023-02-11T04:35:04;14.63;;;13.23;;
6197;SDS011;3132;42.622;23.328;2023-02-11T04:37:30;15.27;;;13.77;;
6197;SDS011;3132;42.622;23.328;2023-02-11T04:39:55;14.53;;;13.33;;
6197;SDS011;3132;42.622;23.328;2023-02-11T04:42:21;15.77;;;14.03;;
6197;SDS011;3132;42.622;23.328;2023-02-11T04:44:47;14.50;;;13.30;;
6197;SDS011;3132;42.622;23.328;2023-02-11T04:47:12;14.00;;;12.83;;
6197;SDS011;3132;42.622;23.328;2023-02-11T04:49:39;14.63;;;13.40;;
6197;SDS011;3132;42.622;23.328;2023-02-11T04:52:05;15.10;;;13.67;;
6197;SDS011;3132;42.622;23.328;2023-02-11T04:54:30;13.53;;;12.23;;
6197;SDS011;3132;42.622;23.328;2023-02-11T04:56:56;14.63;;;12.57;;
6197;SDS011;3132;42.622;23.328;2023-02-11T04:59:21;14.73;;;13.23;;
6197;SDS011;3132;42.622;23.328;2023-02-11T05:01:46;13.97;;;12.70;;
6197;SDS011;3132;42.622;23.328;2023-02-11T05:04:12;14.73;;;13.53;;
6197;SDS011;3132;42.622;23.328;2023-02-11T05:06:37;15.27;;;13.67;;
6197;SDS011;3132;42.622;23.328;2023-02-11T05:09:03;15.10;;;13.70;;
6197;SDS011;3132;42.622;23.328;2023-02-11T05:11:29;26.63;;;15.23;;
6197;SDS011;3132;42.622;23.328;2023-02-11T05:13:55;15.53;;;14.20;;
6197;SDS011;3132;42.622;23.328;2023-02-11T05:16:20;16.07;;;14.57;;
6197;SDS011;3132;42.622;23.328;2023-02-11T05:18:46;13.03;;;12.03;;
6197;SDS011;3132;42.622;23.328;2023-02-11T05:21:13;14.80;;;13.47;;
6197;SDS011;3132;42.622;23.328;2023-02-11T05:23:40;15.83;;;13.17;;
6197;SDS011;3132;42.622;23.328;2023-02-11T05:26:06;14.30;;;13.00;;
6197;SDS011;3132;42.622;23.328;2023-02-11T05:28:32;18.40;;;14.50;;
6197;SDS011;3132;42.622;23.328;2023-02-11T05:30:57;15.00;;;13.70;;
6197;SDS011;3132;42.622;23.328;2023-02-11T05:33:23;14.67;;;13.17;;
6197;SDS011;3132;42.622;23.328;2023-02-11T05:35:49;15.13;;;13.93;;
6197;SDS011;3132;42.622;23.328;2023-02-11T05:38:14;16.83;;;15.07;;
6197;SDS011;3132;42.622;23.328;2023-02-11T05:40:40;16.30;;;14.73;;
6197;SDS011;3132;42.622;23.328;2023-02-11T05:43:05;14.07;;;12.90;;
6197;SDS011;3132;42.622;23.328;2023-02-11T05:45:31;13.80;;;12.50;;
6197;SDS011;3132;42.622;23.328;2023-02-11T05:47:57;16.23;;;14.50;;
6197;SDS011;3132;42.622;23.328;2023-02-11T05:50:23;17.43;;;15.77;;
6197;SDS011;3132;42.622;23.328;2023-02-11T05:52:48;16.30;;;14.63;;
6197;SDS011;3132;42.622;23.328;2023-02-11T05:55:14;16.77;;;15.10;;
6197;SDS011;3132;42.622;23.328;2023-02-11T05:57:39;16.93;;;15.00;;
6197;SDS011;3132;42.622;23.328;2023-02-11T06:00:05;17.50;;;15.97;;
6197;SDS011;3132;42.622;23.328;2023-02-11T06:02:31;18.03;;;14.97;;
6197;SDS011;3132;42.622;23.328;2023-02-11T06:04:56;16.17;;;14.50;;
6197;SDS011;3132;42.622;23.328;2023-02-11T06:07:22;18.80;;;16.33;;
6197;SDS011;3132;42.622;23.328;2023-02-11T06:09:47;21.40;;;16.20;;
6197;SDS011;3132;42.622;23.328;2023-02-11T06:12:12;17.63;;;15.70;;
6197;SDS011;3132;42.622;23.328;2023-02-11T06:14:38;17.77;;;15.90;;
6197;SDS011;3132;42.622;23.328;2023-02-11T06:17:03;27.23;;;18.20;;
6197;SDS011;3132;42.622;23.328;2023-02-11T06:19:29;19.83;;;17.53;;
6197;SDS011;3132;42.622;23.328;2023-02-11T06:21:55;27.07;;;17.53;;
6197;SDS011;3132;42.622;23.328;2023-02-11T06:24:21;26.17;;;20.73;;
6197;SDS011;3132;42.622;23.328;2023-02-11T06:26:47;21.87;;;17.73;;
6197;SDS011;3132;42.622;23.328;2023-02-11T06:29:12;22.00;;;18.07;;
6197;SDS011;3132;42.622;23.328;2023-02-11T06:31:38;23.70;;;18.43;;
6197;SDS011;3132;42.622;23.328;2023-02-11T06:34:03;23.17;;;19.57;;
6197;SDS011;3132;42.622;23.328;2023-02-11T06:36:29;22.03;;;19.03;;
6197;SDS011;3132;42.622;23.328;2023-02-11T06:38:55;25.13;;;19.73;;
6197;SDS011;3132;42.622;23.328;2023-02-11T06:41:20;22.47;;;19.93;;
6197;SDS011;3132;42.622;23.328;2023-02-11T06:43:47;27.13;;;18.77;;
6197;SDS011;3132;42.622;23.328;2023-02-11T06:46:13;24.33;;;17.93;;
6197;SDS011;3132;42.622;23.328;2023-02-11T06:48:39;32.37;;;18.93;;
6197;SDS011;3132;42.622;23.328;2023-02-11T06:51:06;23.67;;;17.93;;
6197;SDS011;3132;42.622;23.328;2023-02-11T06:53:34;21.20;;;18.63;;
6197;SDS011;3132;42.622;23.328;2023-02-11T06:56:04;24.63;;;18.40;;
6197;SDS011;3132;42.622;23.328;2023-02-11T06:58:32;24.90;;;18.57;;
6197;SDS011;3132;42.622;23.328;2023-02-11T07:00:58;20.50;;;17.37;;
6197;SDS011;3132;42.622;23.328;2023-02-11T07:03:24;22.17;;;17.60;;
6197;SDS011;3132;42.622;23.328;2023-02-11T07:05:50;22.83;;;18.73;;
6197;SDS011;3132;42.622;23.328;2023-02-11T07:08:15;20.90;;;17.43;;
6197;SDS011;3132;42.622;23.328;2023-02-11T07:10:41;26.73;;;18.70;;
6197;SDS011;3132;42.622;23.328;2023-02-11T07:13:06;25.13;;;20.33;;
6197;SDS011;3132;42.622;23.328;2023-02-11T07:15:32;27.47;;;19.70;;
6197;SDS011;3132;42.622;23.328;2023-02-11T07:17:57;21.20;;;19.03;;
6197;SDS011;3132;42.622;23.328;2023-02-11T07:20:23;26.00;;;18.20;;
6197;SDS011;3132;42.622;23.328;2023-02-11T07:22:49;26.23;;;17.63;;
6197;SDS011;3132;42.622;23.328;2023-02-11T07:25:15;27.83;;;19.40;;
6197;SDS011;3132;42.622;23.328;2023-02-11T07:27:43;28.87;;;19.20;;
6197;SDS011;3132;42.622;23.328;2023-02-11T07:30:09;25.30;;;18.83;;
6197;SDS011;3132;42.622;23.328;2023-02-11T07:32:35;26.57;;;20.60;;
6197;SDS011;3132;42.622;23.328;2023-02-11T07:35:00;27.20;;;18.77;;
6197;SDS011;3132;42.622;23.328;2023-02-11T07:37:26;26.63;;;21.30;;
6197;SDS011;3132;42.622;23.328;2023-02-11T07:39:52;23.63;;;18.77;;
6197;SDS011;3132;42.622;23.328;2023-02-11T07:42:17;19.60;;;17.50;;
6197;SDS011;3132;42.622;23.328;2023-02-11T07:44:42;23.93;;;17.73;;
6197;SDS011;3132;42.622;23.328;2023-02-11T07:47:08;20.80;;;16.00;;
6197;SDS011;3132;42.622;23.328;2023-02-11T07:49:33;20.20;;;18.30;;
6197;SDS011;3132;42.622;23.328;2023-02-11T07:51:59;22.70;;;17.97;;
6197;SDS011;3132;42.622;23.328;2023-02-11T07:54:24;23.10;;;18.47;;
6197;SDS011;3132;42.622;23.328;2023-02-11T07:56:49;22.20;;;18.83;;
6197;SDS011;3132;42.622;23.328;2023-02-11T07:59:15;21.37;;;17.20;;
6197;SDS011;3132;42.622;23.328;2023-02-11T08:01:40;26.83;;;17.83;;
6197;SDS011;3132;42.622;23.328;2023-02-11T08:04:06;21.07;;;16.87;;
6197;SDS011;3132;42.622;23.328;2023-02-11T08:06:32;18.50;;;16.27;;
6197;SDS011;3132;42.622;23.328;2023-02-11T08:09:03;20.43;;;17.60;;
6197;SDS011;3132;42.622;23.328;2023-02-11T08:11:30;19.67;;;15.60;;
6197;SDS011;3132;42.622;23.328;2023-02-11T08:13:55;18.50;;;16.80;;
6197;SDS011;3132;42.622;23.328;2023-02-11T08:16:31;20.30;;;17.53;;
6197;SDS011;3132;42.622;23.328;2023-02-11T08:18:58;19.57;;;16.63;;
6197;SDS011;3132;42.622;23.328;2023-02-11T08:21:28;23.93;;;18.33;;
6197;SDS011;3132;42.622;23.328;2023-02-11T08:23:54;23.17;;;18.60;;
6197;SDS011;3132;42.622;23.328;2023-02-11T08:26:24;18.57;;;16.40;;
6197;SDS011;3132;42.622;23.328;2023-02-11T08:28:53;21.83;;;17.80;;
6197;SDS011;3132;42.622;23.328;2023-02-11T08:31:21;18.47;;;15.53;;
6197;SDS011;3132;42.622;23.328;2023-02-11T08:33:49;19.50;;;16.13;;
6197;SDS011;3132;42.622;23.328;2023-02-11T08:36:19;16.73;;;15.00;;
6197;SDS011;3132;42.622;23.328;2023-02-11T08:38:47;22.03;;;18.57;;
6197;SDS011;3132;42.622;23.328;2023-02-11T08:41:12;21.37;;;16.40;;
6197;SDS011;3132;42.622;23.328;2023-02-11T08:43:39;23.63;;;16.97;;
6197;SDS011;3132;42.622;23.328;2023-02-11T08:46:08;19.67;;;16.37;;
6197;SDS011;3132;42.622;23.328;2023-02-11T08:48:36;22.00;;;18.17;;
6197;SDS011;3132;42.622;23.328;2023-02-11T08:51:09;18.77;;;16.97;;
6197;SDS011;3132;42.622;23.328;2023-02-11T08:53:37;20.37;;;17.20;;
6197;SDS011;3132;42.622;23.328;2023-02-11T08:56:03;23.90;;;16.90;;
6197;SDS011;3132;42.622;23.328;2023-02-11T08:58:30;20.80;;;16.53;;
6197;SDS011;3132;42.622;23.328;2023-02-11T09:00:55;20.20;;;17.67;;
6197;SDS011;3132;42.622;23.328;2023-02-11T09:03:21;21.73;;;18.13;;
6197;SDS011;3132;42.622;23.328;2023-02-11T09:05:47;24.00;;;17.30;;
6197;SDS011;3132;42.622;23.328;2023-02-11T09:08:14;21.47;;;19.23;;
6197;SDS011;3132;42.622;23.328;2023-02-11T09:10:40;21.77;;;19.23;;
6197;SDS011;3132;42.622;23.328;2023-02-11T09:13:05;28.63;;;20.37;;
6197;SDS011;3132;42.622;23.328;2023-02-11T09:15:32;23.27;;;18.60;;
6197;SDS011;3132;42.622;23.328;2023-02-11T09:17:57;21.23;;;17.23;;
6197;SDS011;3132;42.622;23.328;2023-02-11T09:20:23;23.60;;;19.60;;
6197;SDS011;3132;42.622;23.328;2023-02-11T09:22:50;27.20;;;18.40;;
6197;SDS011;3132;42.622;23.328;2023-02-11T09:25:16;19.57;;;17.47;;
6197;SDS011;3132;42.622;23.328;2023-02-11T09:27:42;32.70;;;18.70;;
6197;SDS011;3132;42.622;23.328;2023-02-11T09:30:07;24.67;;;16.83;;
6197;SDS011;3132;42.622;23.328;2023-02-11T09:32:33;25.80;;;18.10;;
6197;SDS011;3132;42.622;23.328;2023-02-11T09:34:58;19.30;;;17.33;;
6197;SDS011;3132;42.622;23.328;2023-02-11T09:37:24;25.40;;;19.63;;
6197;SDS011;3132;42.622;23.328;2023-02-11T09:39:49;21.43;;;18.00;;
6197;SDS011;3132;42.622;23.328;2023-02-11T09:44:56;24.40;;;19.43;;
6197;SDS011;3132;42.622;23.328;2023-02-11T09:47:25;24.23;;;18.20;;
6197;SDS011;3132;42.622;23.328;2023-02-11T09:50:02;18.00;;;16.27;;
6197;SDS011;3132;42.622;23.328;2023-02-11T09:55:21;21.97;;;17.10;;
6197;SDS011;3132;42.622;23.328;2023-02-11T09:58:12;23.73;;;17.37;;
6197;SDS011;3132;42.622;23.328;2023-02-11T10:00:47;22.50;;;17.37;;
6197;SDS011;3132;42.622;23.328;2023-02-11T10:15:05;17.33;;;15.53;;
6197;SDS011;3132;42.622;23.328;2023-02-11T10:23:08;20.53;;;16.67;;
6197;SDS011;3132;42.622;23.328;2023-02-11T10:25:43;17.83;;;15.93;;
6197;SDS011;3132;42.622;23.328;2023-02-11T10:28:14;18.07;;;16.03;;
6197;SDS011;3132;42.622;23.328;2023-02-11T10:30:44;19.50;;;16.17;;
6197;SDS011;3132;42.622;23.328;2023-02-11T10:33:14;19.93;;;15.73;;
6197;SDS011;3132;42.622;23.328;2023-02-11T10:35:49;19.53;;;15.53;;
6197;SDS011;3132;42.622;23.328;2023-02-11T10:38:14;18.40;;;15.67;;
6197;SDS011;3132;42.622;23.328;2023-02-11T10:40:40;19.83;;;16.43;;
6197;SDS011;3132;42.622;23.328;2023-02-11T10:43:07;18.60;;;16.10;;
6197;SDS011;3132;42.622;23.328;2023-02-11T10:45:37;19.30;;;16.03;;
6197;SDS011;3132;42.622;23.328;2023-02-11T10:48:34;16.60;;;14.97;;
6197;SDS011;3132;42.622;23.328;2023-02-11T10:51:07;16.47;;;14.83;;
6197;SDS011;3132;42.622;23.328;2023-02-11T10:53:33;18.37;;;15.27;;
6197;SDS011;3132;42.622;23.328;2023-02-11T10:55:59;16.17;;;14.33;;
6197;SDS011;3132;42.622;23.328;2023-02-11T10:58:36;18.50;;;14.83;;
6197;SDS011;3132;42.622;23.328;2023-02-11T11:01:07;23.20;;;15.70;;
6197;SDS011;3132;42.622;23.328;2023-02-11T11:03:38;18.40;;;16.10;;
6197;SDS011;3132;42.622;23.328;2023-02-11T11:06:10;14.93;;;13.67;;
6197;SDS011;3132;42.622;23.328;2023-02-11T11:08:40;16.63;;;14.80;;
6197;SDS011;3132;42.622;23.328;2023-02-11T11:11:07;17.10;;;15.40;;
6197;SDS011;3132;42.622;23.328;2023-02-11T11:13:38;17.40;;;15.23;;
6197;SDS011;3132;42.622;23.328;2023-02-11T11:16:31;17.03;;;15.33;;
6197;SDS011;3132;42.622;23.328;2023-02-11T11:21:34;15.67;;;14.17;;
6197;SDS011;3132;42.622;23.328;2023-02-11T11:24:05;16.27;;;14.63;;
6197;SDS011;3132;42.622;23.328;2023-02-11T11:26:45;16.27;;;14.50;;
6197;SDS011;3132;42.622;23.328;2023-02-11T11:29:14;17.40;;;14.80;;
6197;SDS011;3132;42.622;23.328;2023-02-11T11:31:46;17.17;;;15.37;;
6197;SDS011;3132;42.622;23.328;2023-02-11T11:34:31;17.17;;;15.47;;
6197;SDS011;3132;42.622;23.328;2023-02-11T11:36:59;16.87;;;15.20;;
6197;SDS011;3132;42.622;23.328;2023-02-11T11:39:34;17.70;;;15.90;;
6197;SDS011;3132;42.622;23.328;2023-02-11T11:42:00;17.60;;;15.83;;
6197;SDS011;3132;42.622;23.328;2023-02-11T11:44:36;16.33;;;14.43;;
6197;SDS011;3132;42.622;23.328;2023-02-11T11:50:21;16.87;;;15.10;;
6197;SDS011;3132;42.622;23.328;2023-02-11T11:54:58;15.93;;;14.33;;
6197;SDS011;3132;42.622;23.328;2023-02-11T11:57:30;18.23;;;15.67;;
6197;SDS011;3132;42.622;23.328;2023-02-11T12:00:01;21.33;;;14.30;;
6197;SDS011;3132;42.622;23.328;2023-02-11T12:03:13;15.70;;;14.23;;
6197;SDS011;3132;42.622;23.328;2023-02-11T12:05:31;17.37;;;15.57;;
6197;SDS011;3132;42.622;23.328;2023-02-11T12:11:03;16.57;;;14.97;;
6197;SDS011;3132;42.622;23.328;2023-02-11T12:16:22;16.07;;;14.37;;
6197;SDS011;3132;42.622;23.328;2023-02-11T12:19:13;14.53;;;13.00;;
6197;SDS011;3132;42.622;23.328;2023-02-11T12:35:31;15.20;;;13.80;;
6197;SDS011;3132;42.622;23.328;2023-02-11T12:40:44;14.87;;;13.50;;
6197;SDS011;3132;42.622;23.328;2023-02-11T12:43:21;15.73;;;14.13;;
6197;SDS011;3132;42.622;23.328;2023-02-11T12:57:35;15.97;;;14.03;;
6197;SDS011;3132;42.622;23.328;2023-02-11T13:02:48;14.90;;;13.40;;
6197;SDS011;3132;42.622;23.328;2023-02-11T13:11:02;15.10;;;13.73;;
6197;SDS011;3132;42.622;23.328;2023-02-11T13:13:51;15.87;;;14.07;;
6197;SDS011;3132;42.622;23.328;2023-02-11T13:21:39;15.40;;;14.00;;
6197;SDS011;3132;42.622;23.328;2023-02-11T13:27:14;15.80;;;14.17;;
6197;SDS011;3132;42.622;23.328;2023-02-11T13:32:20;16.87;;;15.17;;
6197;SDS011;3132;42.622;23.328;2023-02-11T13:37:21;15.37;;;14.07;;
6197;SDS011;3132;42.622;23.328;2023-02-11T13:42:50;16.40;;;14.73;;
6197;SDS011;3132;42.622;23.328;2023-02-11T13:45:41;15.90;;;14.33;;
6197;SDS011;3132;42.622;23.328;2023-02-11T13:51:17;15.40;;;13.87;;
6197;SDS011;3132;42.622;23.328;2023-02-11T13:53:58;17.07;;;15.37;;
6197;SDS011;3132;42.622;23.328;2023-02-11T13:56:28;15.10;;;13.77;;
6197;SDS011;3132;42.622;23.328;2023-02-11T13:59:01;16.53;;;13.97;;
6197;SDS011;3132;42.622;23.328;2023-02-11T14:05:17;16.70;;;15.10;;
6197;SDS011;3132;42.622;23.328;2023-02-11T14:11:04;16.60;;;14.50;;
6197;SDS011;3132;42.622;23.328;2023-02-11T14:16:14;16.00;;;14.40;;
6197;SDS011;3132;42.622;23.328;2023-02-11T14:23:47;17.30;;;15.63;;
6197;SDS011;3132;42.622;23.328;2023-02-11T14:31:42;17.37;;;15.43;;
6197;SDS011;3132;42.622;23.328;2023-02-11T14:37:19;17.97;;;16.07;;
6197;SDS011;3132;42.622;23.328;2023-02-11T14:42:34;20.80;;;18.60;;
6197;SDS011;3132;42.622;23.328;2023-02-11T14:45:03;18.93;;;16.93;;
6197;SDS011;3132;42.622;23.328;2023-02-11T14:53:16;18.13;;;16.10;;
6197;SDS011;3132;42.622;23.328;2023-02-11T14:55:46;18.60;;;16.23;;
6197;SDS011;3132;42.622;23.328;2023-02-11T14:58:31;18.70;;;16.07;;
6197;SDS011;3132;42.622;23.328;2023-02-11T15:00:57;18.93;;;16.97;;
6197;SDS011;3132;42.622;23.328;2023-02-11T15:03:36;18.20;;;16.27;;
6197;SDS011;3132;42.622;23.328;2023-02-11T15:08:35;19.20;;;16.40;;
6197;SDS011;3132;42.622;23.328;2023-02-11T15:11:02;20.07;;;15.97;;
6197;SDS011;3132;42.622;23.328;2023-02-11T15:13:34;20.87;;;16.03;;
6197;SDS011;3132;42.622;23.328;2023-02-11T15:16:04;19.40;;;16.87;;
6197;SDS011;3132;42.622;23.328;2023-02-11T15:18:36;20.80;;;16.23;;
6197;SDS011;3132;42.622;23.328;2023-02-11T15:21:08;27.97;;;16.97;;
6197;SDS011;3132;42.622;23.328;2023-02-11T15:23:34;26.97;;;16.73;;
6197;SDS011;3132;42.622;23.328;2023-02-11T15:26:01;22.67;;;15.67;;
6197;SDS011;3132;42.622;23.328;2023-02-11T15:28:33;18.17;;;16.23;;
6197;SDS011;3132;42.622;23.328;2023-02-11T15:31:15;17.93;;;16.07;;
6197;SDS011;3132;42.622;23.328;2023-02-11T15:33:41;19.43;;;15.47;;
6197;SDS011;3132;42.622;23.328;2023-02-11T15:36:11;18.63;;;16.23;;
6197;SDS011;3132;42.622;23.328;2023-02-11T15:38:37;22.40;;;16.17;;
6197;SDS011;3132;42.622;23.328;2023-02-11T15:41:04;19.20;;;17.23;;
6197;SDS011;3132;42.622;23.328;2023-02-11T15:43:44;26.73;;;18.83;;
6197;SDS011;3132;42.622;23.328;2023-02-11T15:46:18;20.83;;;17.57;;
6197;SDS011;3132;42.622;23.328;2023-02-11T15:48:49;21.53;;;17.50;;
6197;SDS011;3132;42.622;23.328;2023-02-11T15:51:24;23.67;;;16.67;;
6197;SDS011;3132;42.622;23.328;2023-02-11T15:53:57;28.90;;;18.67;;
6197;SDS011;3132;42.622;23.328;2023-02-11T15:59:50;38.80;;;24.17;;
6197;SDS011;3132;42.622;23.328;2023-02-11T16:02:13;39.57;;;23.20;;
6197;SDS011;3132;42.622;23.328;2023-02-11T16:05:42;39.97;;;21.17;;
6197;SDS011;3132;42.622;23.328;2023-02-11T16:07:52;33.83;;;21.27;;
6197;SDS011;3132;42.622;23.328;2023-02-11T16:10:22;40.43;;;21.87;;
6197;SDS011;3132;42.622;23.328;2023-02-11T16:12:51;38.13;;;20.83;;
6197;SDS011;3132;42.622;23.328;2023-02-11T16:18:33;18.80;;;16.80;;
6197;SDS011;3132;42.622;23.328;2023-02-11T16:21:01;21.83;;;15.83;;
6197;SDS011;3132;42.622;23.328;2023-02-11T16:23:31;22.63;;;16.03;;
6197;SDS011;3132;42.622;23.328;2023-02-11T16:26:07;18.73;;;16.77;;
6197;SDS011;3132;42.622;23.328;2023-02-11T16:28:37;24.60;;;18.57;;
6197;SDS011;3132;42.622;23.328;2023-02-11T16:31:03;37.17;;;19.33;;
6197;SDS011;3132;42.622;23.328;2023-02-11T16:33:29;42.93;;;25.33;;
6197;SDS011;3132;42.622;23.328;2023-02-11T16:35:55;32.63;;;24.83;;
6197;SDS011;3132;42.622;23.328;2023-02-11T16:38:21;30.77;;;21.37;;
6197;SDS011;3132;42.622;23.328;2023-02-11T16:40:47;22.93;;;19.00;;
6197;SDS011;3132;42.622;23.328;2023-02-11T16:43:14;24.13;;;18.23;;
6197;SDS011;3132;42.622;23.328;2023-02-11T16:45:43;31.47;;;20.67;;
6197;SDS011;3132;42.622;23.328;2023-02-11T16:48:10;22.23;;;19.07;;
6197;SDS011;3132;42.622;23.328;2023-02-11T16:50:42;23.20;;;20.10;;
6197;SDS011;3132;42.622;23.328;2023-02-11T16:53:10;20.50;;;18.07;;
6197;SDS011;3132;42.622;23.328;2023-02-11T16:55:37;35.50;;;23.20;;
6197;SDS011;3132;42.622;23.328;2023-02-11T16:58:03;25.07;;;20.17;;
6197;SDS011;3132;42.622;23.328;2023-02-11T17:00:28;32.33;;;21.00;;
6197;SDS011;3132;42.622;23.328;2023-02-11T17:02:54;27.43;;;20.67;;
6197;SDS011;3132;42.622;23.328;2023-02-11T17:05:20;31.37;;;20.87;;
6197;SDS011;3132;42.622;23.328;2023-02-11T17:07:47;28.63;;;20.93;;
6197;SDS011;3132;42.622;23.328;2023-02-11T17:10:17;26.63;;;20.27;;
6197;SDS011;3132;42.622;23.328;2023-02-11T17:12:50;26.97;;;18.27;;
6197;SDS011;3132;42.622;23.328;2023-02-11T17:15:17;19.47;;;17.47;;
6197;SDS011;3132;42.622;23.328;2023-02-11T17:17:43;25.90;;;16.47;;
6197;SDS011;3132;42.622;23.328;2023-02-11T17:20:10;23.43;;;18.80;;
6197;SDS011;3132;42.622;23.328;2023-02-11T17:22:37;20.07;;;17.93;;